createdAt,value
2019-03-25T00:00:38.215Z,101024.70
2019-03-25T00:03:04.176Z,101023.36
2019-03-25T00:05:29.981Z,101012.00
2019-03-25T00:07:55.758Z,101005.27
2019-03-25T00:10:21.584Z,100994.61
2019-03-25T00:12:47.367Z,100994.61
2019-03-25T00:15:13.160Z,100990.94
2019-03-25T00:17:39.035Z,100973.38
2019-03-25T00:20:05.346Z,100960.29
2019-03-25T00:22:31.148Z,100946.91
2019-03-25T00:24:56.943Z,100945.87
2019-03-25T00:27:22.727Z,100949.37
2019-03-25T00:29:48.521Z,100943.89
2019-03-25T00:32:14.348Z,100939.02
2019-03-25T00:34:40.145Z,100925.42
2019-03-25T00:37:05.930Z,100913.22
2019-03-25T00:39:33.199Z,100900.28
2019-03-25T00:41:58.996Z,100895.23
2019-03-25T00:44:24.788Z,100882.38
2019-03-25T00:46:50.574Z,100882.89
2019-03-25T00:49:16.373Z,100868.00
2019-03-25T00:51:42.154Z,100860.63
2019-03-25T00:54:07.929Z,100852.81
2019-03-25T00:56:33.740Z,100846.43
2019-03-25T00:58:59.516Z,100821.98
2019-03-25T01:01:25.316Z,100829.35
2019-03-25T01:03:51.093Z,100826.88
2019-03-25T01:06:16.993Z,100819.98
2019-03-25T01:08:42.814Z,100820.50
2019-03-25T01:11:08.606Z,100811.66
2019-03-25T01:13:34.397Z,100808.67
2019-03-25T01:16:00.188Z,100816.19
2019-03-25T01:18:25.968Z,100811.00
2019-03-25T01:20:51.754Z,100809.63
2019-03-25T01:23:17.543Z,100811.62
2019-03-25T01:25:43.337Z,100801.27
2019-03-25T01:28:09.113Z,100797.59
2019-03-25T01:30:34.912Z,100805.96
2019-03-25T01:33:00.689Z,100800.89
2019-03-25T01:35:26.496Z,100822.25
2019-03-25T01:37:52.269Z,100822.25
2019-03-25T01:40:18.080Z,100818.41
2019-03-25T01:42:43.869Z,100828.90
2019-03-25T01:45:09.848Z,100834.03
2019-03-25T01:47:35.644Z,100840.03
2019-03-25T01:50:01.418Z,100840.37
2019-03-25T01:52:27.207Z,100842.81
2019-03-25T01:54:52.975Z,100850.97
2019-03-25T01:57:18.763Z,100841.09
2019-03-25T01:59:44.540Z,100825.29
2019-03-25T02:02:10.336Z,100815.88
2019-03-25T02:04:36.114Z,100827.02
2019-03-25T02:07:01.898Z,100834.23
2019-03-25T02:09:27.682Z,100837.48
2019-03-25T02:11:53.467Z,100838.07
2019-03-25T02:14:19.244Z,100828.81
2019-03-25T02:16:45.037Z,100826.79
2019-03-25T02:19:10.843Z,100823.47
2019-03-25T02:21:36.649Z,100816.92
2019-03-25T02:24:02.428Z,100807.23
2019-03-25T02:26:28.240Z,100811.45
2019-03-25T02:28:54.020Z,100815.25
2019-03-25T02:31:19.805Z,100801.94
2019-03-25T02:33:45.587Z,100799.30
2019-03-25T02:36:11.487Z,100798.15
2019-03-25T02:38:37.227Z,100791.63
2019-03-25T02:41:03.004Z,100795.95
2019-03-25T02:43:28.790Z,100785.82
2019-03-25T02:45:54.567Z,100778.63
2019-03-25T02:48:20.357Z,100781.99
2019-03-25T02:50:46.143Z,100780.48
2019-03-25T02:53:11.928Z,100784.66
2019-03-25T02:55:42.030Z,100782.80
2019-03-25T02:58:05.400Z,100786.51
2019-03-25T03:00:32.881Z,100782.93
2019-03-25T03:02:58.679Z,100781.12
2019-03-25T03:05:24.456Z,100777.94
2019-03-25T03:07:50.258Z,100774.05
2019-03-25T03:10:16.138Z,100781.05
2019-03-25T03:12:41.931Z,100790.75
2019-03-25T03:15:07.817Z,100782.77
2019-03-25T03:17:33.597Z,100771.46
2019-03-25T03:19:59.382Z,100763.77
2019-03-25T03:22:25.183Z,100765.38
2019-03-25T03:24:50.966Z,100761.02
2019-03-25T03:27:16.744Z,100760.03
2019-03-25T03:29:42.541Z,100761.02
2019-03-25T03:32:08.326Z,100760.67
2019-03-25T03:34:34.139Z,100769.65
2019-03-25T03:36:59.900Z,100764.98
2019-03-25T03:39:25.698Z,100766.88
2019-03-25T03:41:51.477Z,100767.22
2019-03-25T03:44:17.274Z,100770.47
2019-03-25T03:46:43.349Z,100767.30
2019-03-25T03:49:09.149Z,100764.09
2019-03-25T03:51:34.929Z,100760.78
2019-03-25T03:54:00.816Z,100757.19
2019-03-25T03:56:26.992Z,100757.53
2019-03-25T03:58:52.893Z,100758.17
2019-03-25T04:01:18.677Z,100755.95
2019-03-25T04:03:44.463Z,100760.55
2019-03-25T04:06:10.247Z,100755.10
2019-03-25T04:08:36.037Z,100754.63
2019-03-25T04:11:01.823Z,100743.68
2019-03-25T04:13:27.613Z,100742.34
2019-03-25T04:15:53.394Z,100742.98
2019-03-25T04:18:19.173Z,100740.19
2019-03-25T04:20:44.968Z,100742.27
2019-03-25T04:23:10.773Z,100750.52
2019-03-25T04:25:36.560Z,100748.08
2019-03-25T04:28:02.336Z,100746.91
2019-03-25T04:30:28.124Z,100744.94
2019-03-25T04:32:53.900Z,100749.58
2019-03-25T04:35:19.699Z,100751.91
2019-03-25T04:37:45.481Z,100752.44
2019-03-25T04:40:11.468Z,100744.67
2019-03-25T04:42:37.247Z,100743.15
2019-03-25T04:45:05.649Z,100749.66
2019-03-25T04:47:31.419Z,100742.98
2019-03-25T04:49:57.215Z,100741.47
2019-03-25T04:52:22.991Z,100750.11
2019-03-25T04:54:48.779Z,100748.59
2019-03-25T04:57:14.562Z,100752.01
2019-03-25T04:59:40.338Z,100747.26
2019-03-25T05:02:06.143Z,100742.27
2019-03-25T05:04:31.912Z,100734.96
2019-03-25T05:06:57.700Z,100739.82
2019-03-25T05:09:23.479Z,100739.58
2019-03-25T05:11:49.276Z,100733.04
2019-03-25T05:14:15.064Z,100736.40
2019-03-25T05:16:40.851Z,100741.39
2019-03-25T05:19:06.742Z,100747.70
2019-03-25T05:21:32.544Z,100744.22
2019-03-25T05:23:58.325Z,100747.70
2019-03-25T05:26:24.111Z,100745.04
2019-03-25T05:28:49.897Z,100742.02
2019-03-25T05:31:15.691Z,100737.03
2019-03-25T05:33:41.469Z,100741.79
2019-03-25T05:36:07.264Z,100744.41
2019-03-25T05:38:33.041Z,100745.80
2019-03-25T05:40:58.838Z,100742.37
2019-03-25T05:43:24.613Z,100739.87
2019-03-25T05:45:50.409Z,100739.01
2019-03-25T05:48:16.195Z,100739.01
2019-03-25T05:50:41.976Z,100739.63
2019-03-25T05:53:07.765Z,100738.92
2019-03-25T05:55:33.547Z,100736.95
2019-03-25T05:57:59.337Z,100734.38
2019-03-25T06:00:27.019Z,100732.69
2019-03-25T06:02:52.821Z,100730.34
2019-03-25T06:05:18.599Z,100729.89
2019-03-25T06:07:44.396Z,100741.44
2019-03-25T06:10:10.481Z,100737.98
2019-03-25T06:12:36.285Z,100749.13
2019-03-25T06:15:03.767Z,100742.77
2019-03-25T06:17:29.566Z,100739.64
2019-03-25T06:19:55.339Z,100738.30
2019-03-25T06:22:21.154Z,100737.19
2019-03-25T06:24:46.922Z,100736.65
2019-03-25T06:27:14.421Z,100738.80
2019-03-25T06:29:40.398Z,100739.88
2019-03-25T06:32:06.190Z,100744.23
2019-03-25T06:34:31.969Z,100744.56
2019-03-25T06:36:57.743Z,100745.23
2019-03-25T06:39:23.544Z,100741.51
2019-03-25T06:41:49.327Z,100745.77
2019-03-25T06:44:15.131Z,100747.39
2019-03-25T06:46:40.910Z,100758.14
2019-03-25T06:49:06.730Z,100758.26
2019-03-25T06:51:32.521Z,100763.30
2019-03-25T06:53:58.313Z,100772.67
2019-03-25T06:56:24.091Z,100772.67
2019-03-25T06:58:49.892Z,100774.06
2019-03-25T07:01:15.674Z,100771.30
2019-03-25T07:03:41.466Z,100781.34
2019-03-25T07:06:07.248Z,100780.28
2019-03-25T07:08:33.051Z,100784.56
2019-03-25T07:10:58.830Z,100777.64
2019-03-25T07:13:24.731Z,100780.36
2019-03-25T07:15:50.512Z,100787.30
2019-03-25T07:18:16.299Z,100785.30
2019-03-25T07:20:42.179Z,100780.31
2019-03-25T07:23:07.992Z,100780.38
2019-03-25T07:25:33.774Z,100777.69
2019-03-25T07:27:59.574Z,100776.48
2019-03-25T07:30:25.346Z,100782.66
2019-03-25T07:32:51.136Z,100787.98
2019-03-25T07:35:16.908Z,100785.01
2019-03-25T07:37:42.700Z,100788.70
2019-03-25T07:40:09.392Z,100745.80
2019-03-25T07:42:35.390Z,100793.11
2019-03-25T07:45:03.388Z,100787.95
2019-03-25T07:47:29.166Z,100794.53
2019-03-25T07:49:54.960Z,100797.91
2019-03-25T07:52:20.735Z,100798.59
2019-03-25T07:54:46.523Z,100800.80
2019-03-25T07:57:12.334Z,100801.42
2019-03-25T07:59:38.132Z,100801.42
2019-03-25T08:02:03.909Z,100813.36
2019-03-25T08:04:29.698Z,100820.70
2019-03-25T08:06:55.481Z,100828.02
2019-03-25T08:09:21.275Z,100841.52
2019-03-25T08:11:47.059Z,100855.59
2019-03-25T08:14:12.831Z,100860.15
2019-03-25T08:16:38.613Z,100861.67
2019-03-25T08:19:04.419Z,100867.28
2019-03-25T08:21:30.195Z,100871.49
2019-03-25T08:23:56.012Z,100880.80
2019-03-25T08:26:21.786Z,100879.12
2019-03-25T08:28:47.592Z,100876.84
2019-03-25T08:31:13.369Z,100885.25
2019-03-25T08:33:39.161Z,100888.97
2019-03-25T08:36:04.938Z,100884.53
2019-03-25T08:38:30.865Z,100884.58
2019-03-25T08:40:56.642Z,100883.84
2019-03-25T08:43:22.431Z,100892.22
2019-03-25T08:45:48.222Z,100895.92
2019-03-25T08:48:13.996Z,100897.56
2019-03-25T08:50:39.811Z,100899.45
2019-03-25T08:53:05.690Z,100905.05
2019-03-25T08:55:31.490Z,100915.20
2019-03-25T08:57:57.263Z,100916.48
2019-03-25T09:00:23.062Z,100920.39
2019-03-25T09:02:48.838Z,100920.28
2019-03-25T09:05:14.839Z,100922.90
2019-03-25T09:07:40.626Z,100923.56
2019-03-25T09:10:07.428Z,100918.63
2019-03-25T09:12:33.211Z,100919.51
2019-03-25T09:14:59.004Z,100933.77
2019-03-25T09:17:24.782Z,100934.09
2019-03-25T09:19:50.571Z,100928.11
2019-03-25T09:22:16.352Z,100926.30
2019-03-25T09:24:42.168Z,100931.65
2019-03-25T09:27:07.948Z,100932.48
2019-03-25T09:29:33.762Z,100941.39
2019-03-25T09:31:59.545Z,100935.39
2019-03-25T09:34:25.341Z,100945.44
2019-03-25T09:36:51.119Z,100947.92
2019-03-25T09:39:16.896Z,100947.22
2019-03-25T09:41:42.687Z,100951.92
2019-03-25T09:44:08.464Z,100967.36
2019-03-25T09:46:34.267Z,100969.24
2019-03-25T09:49:00.051Z,100972.46
2019-03-25T09:51:25.840Z,100971.28
2019-03-25T09:53:51.617Z,100971.61
2019-03-25T09:56:17.411Z,100974.12
2019-03-25T09:58:43.290Z,100976.27
2019-03-25T10:01:09.081Z,100982.33
2019-03-25T10:03:34.867Z,100980.80
2019-03-25T10:06:00.672Z,100991.95
2019-03-25T10:08:26.454Z,100982.17
2019-03-25T10:10:52.259Z,100982.32
2019-03-25T10:13:18.040Z,100983.61
2019-03-25T10:15:43.826Z,100995.51
2019-03-25T10:18:09.604Z,101000.42
2019-03-25T10:20:35.421Z,100996.43
2019-03-25T10:23:01.207Z,100994.52
2019-03-25T10:25:26.997Z,100994.42
2019-03-25T10:27:52.796Z,100992.91
2019-03-25T10:30:18.950Z,100996.45
2019-03-25T10:32:44.743Z,100996.58
2019-03-25T10:35:10.621Z,100992.59
2019-03-25T10:37:36.406Z,100998.92
2019-03-25T10:40:03.697Z,101001.10
2019-03-25T10:42:29.490Z,101006.28
2019-03-25T10:44:55.268Z,101013.11
2019-03-25T10:47:21.059Z,101010.01
2019-03-25T10:49:46.839Z,101019.06
2019-03-25T10:52:12.629Z,101017.23
2019-03-25T10:54:38.521Z,100853.23
2019-03-25T10:57:04.625Z,101003.80
2019-03-25T10:59:30.416Z,101015.03
2019-03-25T11:01:56.215Z,101016.83
2019-03-25T11:04:21.996Z,101028.65
2019-03-25T11:06:47.787Z,101024.63
2019-03-25T11:09:13.582Z,101029.47
2019-03-25T11:11:39.372Z,101035.28
2019-03-25T11:14:05.162Z,101036.84
2019-03-25T11:16:30.943Z,101048.76
2019-03-25T11:18:56.737Z,101066.23
2019-03-25T11:21:22.507Z,101084.13
2019-03-25T11:23:48.310Z,101092.58
2019-03-25T11:26:14.096Z,101092.39
2019-03-25T11:28:39.888Z,101098.00
2019-03-25T11:31:05.666Z,101103.70
2019-03-25T11:33:31.471Z,101102.53
2019-03-25T11:35:57.248Z,101100.58
2019-03-25T11:38:23.061Z,101096.59
2019-03-25T11:40:48.836Z,100974.75
2019-03-25T11:43:14.634Z,101093.94
2019-03-25T11:45:40.423Z,101083.66
2019-03-25T11:48:06.212Z,101077.80
2019-03-25T11:50:31.988Z,101087.57
2019-03-25T11:52:57.783Z,101099.47
2019-03-25T11:55:23.561Z,101103.81
2019-03-25T11:57:49.359Z,101119.88
2019-03-25T12:00:15.236Z,101146.80
2019-03-25T12:02:41.033Z,101141.03
2019-03-25T12:05:07.010Z,101153.62
2019-03-25T12:07:32.947Z,101158.91
2019-03-25T12:09:58.760Z,101162.69
2019-03-25T12:12:24.544Z,101151.56
2019-03-25T12:14:50.342Z,101159.67
2019-03-25T12:17:16.124Z,101161.30
2019-03-25T12:19:41.925Z,101171.70
2019-03-25T12:22:07.706Z,101162.90
2019-03-25T12:24:33.515Z,101168.75
2019-03-25T12:26:59.301Z,101172.27
2019-03-25T12:29:30.054Z,101187.91
2019-03-25T12:31:52.767Z,101196.30
2019-03-25T12:34:18.609Z,101197.11
2019-03-25T12:36:44.430Z,101192.47
2019-03-25T12:39:10.240Z,101194.73
2019-03-25T12:41:36.021Z,101193.76
2019-03-25T12:44:01.818Z,101185.43
2019-03-25T12:46:27.603Z,101193.14
2019-03-25T12:48:53.400Z,101170.30
2019-03-25T12:51:19.180Z,101180.35
2019-03-25T12:53:44.985Z,101194.91
2019-03-25T12:56:10.761Z,101190.22
2019-03-25T12:58:36.538Z,101194.78
2019-03-25T13:01:02.345Z,101204.26
2019-03-25T13:03:28.122Z,101203.73
2019-03-25T13:05:53.941Z,101198.16
2019-03-25T13:08:19.722Z,101214.41
2019-03-25T13:10:45.522Z,101211.25
2019-03-25T13:13:11.295Z,101221.16
2019-03-25T13:15:37.494Z,101212.41
2019-03-25T13:18:03.386Z,101230.54
2019-03-25T13:20:29.188Z,101230.54
2019-03-25T13:22:54.992Z,101223.63
2019-03-25T13:25:20.804Z,101246.58
2019-03-25T13:27:46.579Z,101252.00
2019-03-25T13:30:12.772Z,101249.22
2019-03-25T13:32:38.560Z,101261.02
2019-03-25T13:35:07.558Z,101262.07
2019-03-25T13:37:33.433Z,101271.71
2019-03-25T13:39:59.228Z,101279.33
2019-03-25T13:42:25.004Z,101282.01
2019-03-25T13:44:50.787Z,101288.21
2019-03-25T13:47:16.576Z,101302.49
2019-03-25T13:49:42.512Z,101294.95
2019-03-25T13:52:08.305Z,101295.95
2019-03-25T13:54:34.084Z,101302.89
2019-03-25T13:56:59.912Z,101312.64
2019-03-25T13:59:27.516Z,101317.60
2019-03-25T14:01:53.391Z,101329.48
2019-03-25T14:04:19.170Z,101325.79
2019-03-25T14:06:44.983Z,101324.44
2019-03-25T14:09:10.765Z,101321.25
2019-03-25T14:11:36.619Z,101328.17
2019-03-25T14:14:02.448Z,101324.63
2019-03-25T14:16:28.253Z,101328.14
2019-03-25T14:18:54.035Z,101342.28
2019-03-25T14:21:19.901Z,101349.53
2019-03-25T14:23:45.705Z,101343.62
2019-03-25T14:26:11.481Z,101350.39
2019-03-25T14:28:37.281Z,101351.22
2019-03-25T14:31:03.267Z,101359.44
2019-03-25T14:33:29.054Z,101365.84
2019-03-25T14:35:54.844Z,101372.58
2019-03-25T14:38:20.635Z,101372.42
2019-03-25T14:40:46.415Z,101381.28
2019-03-25T14:43:12.197Z,101389.89
2019-03-25T14:45:37.976Z,101393.08
2019-03-25T14:48:03.771Z,101395.43
2019-03-25T14:50:29.562Z,101406.36
2019-03-25T14:52:55.360Z,101404.52
2019-03-25T14:55:21.141Z,101416.49
2019-03-25T14:57:46.935Z,101417.69
2019-03-25T15:00:12.829Z,101434.52
2019-03-25T15:02:38.631Z,101434.52
2019-03-25T15:05:05.407Z,101431.84
2019-03-25T15:07:31.213Z,101443.94
2019-03-25T15:09:56.990Z,101449.31
2019-03-25T15:12:22.790Z,101451.33
2019-03-25T15:14:48.559Z,101462.08
2019-03-25T15:17:14.352Z,101475.22
2019-03-25T15:19:40.146Z,101492.40
2019-03-25T15:22:05.931Z,101492.73
2019-03-25T15:24:31.740Z,101487.52
2019-03-25T15:26:57.613Z,101505.35
2019-03-25T15:29:23.413Z,101505.19
2019-03-25T15:31:49.191Z,101518.48
2019-03-25T15:34:14.993Z,101531.12
2019-03-25T15:36:40.770Z,101535.14
2019-03-25T15:39:07.120Z,101537.17
2019-03-25T15:41:32.909Z,101539.02
2019-03-25T15:43:58.710Z,101545.56
2019-03-25T15:46:24.493Z,101552.16
2019-03-25T15:48:50.287Z,101553.30
2019-03-25T15:51:16.081Z,101559.70
2019-03-25T15:53:41.880Z,101559.70
2019-03-25T15:56:07.661Z,101570.80
2019-03-25T15:58:33.453Z,101568.77
2019-03-25T16:00:59.243Z,101573.84
2019-03-25T16:03:25.050Z,101572.13
2019-03-25T16:05:50.825Z,101591.15
2019-03-25T16:08:16.613Z,101595.37
2019-03-25T16:10:42.420Z,101596.55
2019-03-25T16:13:08.268Z,101601.46
2019-03-25T16:15:36.899Z,101614.20
2019-03-25T16:18:04.687Z,101620.60
2019-03-25T16:20:30.482Z,101626.81
2019-03-25T16:22:56.269Z,101633.02
2019-03-25T16:25:25.717Z,101634.98
2019-03-25T16:27:51.511Z,101640.66
2019-03-25T16:30:17.302Z,101640.66
2019-03-25T16:32:43.094Z,101650.41
2019-03-25T16:35:11.444Z,101656.20
2019-03-25T16:37:36.580Z,101657.14
2019-03-25T16:40:05.040Z,101663.01
2019-03-25T16:42:30.819Z,101669.73
2019-03-25T16:44:56.609Z,101677.66
2019-03-25T16:47:22.402Z,101692.98
2019-03-25T16:49:48.196Z,101701.84
2019-03-25T16:52:13.975Z,101701.46
2019-03-25T16:54:39.781Z,101703.73
2019-03-25T16:57:05.551Z,101706.08
2019-03-25T16:59:31.387Z,101705.64
2019-03-25T17:01:57.176Z,101712.28
2019-03-25T17:04:22.969Z,101714.75
2019-03-25T17:06:48.748Z,101714.21
2019-03-25T17:09:14.528Z,101717.89
2019-03-25T17:11:40.321Z,101718.02
2019-03-25T17:14:06.101Z,101724.41
2019-03-25T17:16:31.900Z,101737.31
2019-03-25T17:18:57.677Z,101733.52
2019-03-25T17:21:23.478Z,101739.66
2019-03-25T17:23:49.273Z,101733.75
2019-03-25T17:26:15.066Z,101738.77
2019-03-25T17:28:40.843Z,101743.85
2019-03-25T17:31:06.634Z,101748.05
2019-03-25T17:33:32.420Z,101755.75
2019-03-25T17:35:58.223Z,101768.48
2019-03-25T17:38:24.107Z,101780.14
2019-03-25T17:40:49.902Z,101789.19
2019-03-25T17:43:15.685Z,101790.77
2019-03-25T17:45:41.488Z,101801.41
2019-03-25T17:48:07.385Z,101808.41
2019-03-25T17:50:33.168Z,101801.67
2019-03-25T17:52:58.949Z,101810.93
2019-03-25T17:55:24.750Z,101817.09
2019-03-25T17:57:50.531Z,101819.87
2019-03-25T18:00:20.163Z,101822.09
2019-03-25T18:02:45.932Z,101830.63
2019-03-25T18:05:11.822Z,101831.42
2019-03-25T18:07:37.620Z,101827.99
2019-03-25T18:10:05.496Z,101829.61
2019-03-25T18:12:38.851Z,101833.28
2019-03-25T18:14:58.978Z,101841.58
2019-03-25T18:17:24.768Z,101850.22
2019-03-25T18:19:50.543Z,101846.59
2019-03-25T18:22:16.342Z,101848.45
2019-03-25T18:24:42.145Z,101849.03
2019-03-25T18:27:07.931Z,101859.52
2019-03-25T18:29:33.711Z,101865.31
2019-03-25T18:31:59.514Z,101875.63
2019-03-25T18:34:25.293Z,101881.25
2019-03-25T18:36:51.086Z,101883.79
2019-03-25T18:39:16.868Z,101878.32
2019-03-25T18:41:42.677Z,101883.08
2019-03-25T18:44:08.455Z,101893.44
2019-03-25T18:46:34.323Z,101897.26
2019-03-25T18:49:00.101Z,101899.88
2019-03-25T18:51:25.893Z,101904.77
2019-03-25T18:53:51.779Z,101898.99
2019-03-25T18:56:17.556Z,101903.53
2019-03-25T18:58:43.446Z,101909.55
2019-03-25T19:01:09.309Z,101909.45
2019-03-25T19:03:35.217Z,101911.44
2019-03-25T19:06:01.152Z,101913.75
2019-03-25T19:08:28.190Z,101913.25
2019-03-25T19:10:54.095Z,101915.34
2019-03-25T19:13:19.857Z,101920.95
2019-03-25T19:15:45.653Z,101922.34
2019-03-25T19:18:11.452Z,101927.83
2019-03-25T19:20:37.254Z,101934.73
2019-03-25T19:23:03.039Z,101958.72
2019-03-25T19:25:28.834Z,101937.52
2019-03-25T19:27:54.637Z,101942.91
2019-03-25T19:30:20.405Z,101949.84
2019-03-25T19:32:46.221Z,101953.30
2019-03-25T19:35:12.291Z,101953.30
2019-03-25T19:37:38.088Z,101942.99
2019-03-25T19:40:05.182Z,101950.40
2019-03-25T19:42:30.971Z,101947.28
2019-03-25T19:44:56.755Z,101939.26
2019-03-25T19:47:22.534Z,101950.79
2019-03-25T19:49:48.535Z,101948.14
2019-03-25T19:52:14.325Z,101945.02
2019-03-25T19:54:40.120Z,101947.94
2019-03-25T19:57:05.950Z,101945.04
2019-03-25T19:59:31.772Z,101949.41
2019-03-25T20:01:57.616Z,101945.17
2019-03-25T20:04:23.470Z,101948.20
2019-03-25T20:06:49.273Z,101950.88
2019-03-25T20:09:15.028Z,101947.98
2019-03-25T20:11:40.889Z,101951.03
2019-03-25T20:14:06.722Z,101959.30
2019-03-25T20:16:32.496Z,101966.72
2019-03-25T20:18:58.301Z,101969.03
2019-03-25T20:21:24.132Z,101964.30
2019-03-25T20:23:50.633Z,101969.52
2019-03-25T20:26:16.707Z,101972.44
2019-03-25T20:28:42.460Z,101981.69
2019-03-25T20:31:08.295Z,101987.39
2019-03-25T20:33:34.017Z,101996.48
2019-03-25T20:35:59.820Z,101995.39
2019-03-25T20:38:25.633Z,101995.39
2019-03-25T20:40:51.383Z,102011.30
2019-03-25T20:43:17.184Z,102017.84
2019-03-25T20:45:42.957Z,102027.70
2019-03-25T20:48:08.718Z,102023.81
2019-03-25T20:50:34.519Z,102027.45
2019-03-25T20:53:00.329Z,102023.45
2019-03-25T20:55:26.090Z,102026.48
2019-03-25T20:57:51.868Z,102035.11
2019-03-25T21:00:21.460Z,102036.20
2019-03-25T21:02:47.254Z,102037.66
2019-03-25T21:05:13.079Z,102040.33
2019-03-25T21:07:38.824Z,102039.58
2019-03-25T21:10:05.603Z,102037.39
2019-03-25T21:12:31.390Z,102047.96
2019-03-25T21:14:57.189Z,102044.45
2019-03-25T21:17:22.990Z,102045.28
2019-03-25T21:19:48.793Z,102049.30
2019-03-25T21:22:14.563Z,102059.02
2019-03-25T21:24:40.436Z,102051.51
2019-03-25T21:27:06.289Z,102047.00
2019-03-25T21:29:32.092Z,102053.69
2019-03-25T21:31:57.916Z,102054.05
2019-03-25T21:34:23.755Z,102051.25
2019-03-25T21:36:49.594Z,102052.72
2019-03-25T21:39:15.486Z,102052.72
2019-03-25T21:41:41.262Z,102049.58
2019-03-25T21:44:07.099Z,102050.42
2019-03-25T21:46:32.947Z,102055.90
2019-03-25T21:48:58.717Z,102058.57
2019-03-25T21:51:24.534Z,102063.27
2019-03-25T21:53:53.017Z,102058.06
2019-03-25T21:56:18.010Z,102062.20
2019-03-25T21:58:43.799Z,102061.60
2019-03-25T22:01:09.591Z,102062.58
2019-03-25T22:03:35.377Z,102059.03
2019-03-25T22:06:01.174Z,102053.69
2019-03-25T22:08:26.959Z,102057.33
2019-03-25T22:10:52.748Z,102057.92
2019-03-25T22:13:18.535Z,102053.93
2019-03-25T22:15:44.327Z,102046.18
2019-03-25T22:18:10.107Z,102042.41
2019-03-25T22:20:35.939Z,102057.84
2019-03-25T22:23:01.733Z,102053.56
2019-03-25T22:25:27.512Z,102056.38
2019-03-25T22:27:53.308Z,102060.61
2019-03-25T22:30:19.088Z,102059.17
2019-03-25T22:32:44.877Z,102066.09
2019-03-25T22:35:10.670Z,102064.62
2019-03-25T22:37:36.460Z,102060.61
2019-03-25T22:40:04.926Z,102059.64
2019-03-25T22:42:30.740Z,102061.11
2019-03-25T22:44:56.516Z,102065.59
2019-03-25T22:47:22.318Z,102067.28
2019-03-25T22:49:48.101Z,102065.22
2019-03-25T22:52:13.890Z,102064.61
2019-03-25T22:54:39.673Z,102065.34
2019-03-25T22:57:05.466Z,102062.31
2019-03-25T22:59:31.248Z,102061.20
2019-03-25T23:01:57.034Z,102072.25
2019-03-25T23:04:22.805Z,102068.98
2019-03-25T23:06:48.611Z,102077.83
2019-03-25T23:09:15.216Z,102076.11
2019-03-25T23:11:40.999Z,102075.88
2019-03-25T23:14:06.975Z,102080.74
2019-03-25T23:16:32.772Z,102077.81
2019-03-25T23:18:58.570Z,102067.49
2019-03-25T23:21:24.363Z,102081.22
2019-03-25T23:23:50.153Z,102076.97
2019-03-25T23:26:16.248Z,102078.80
2019-03-25T23:28:42.048Z,102082.47
2019-03-25T23:31:07.840Z,102088.28
2019-03-25T23:33:33.633Z,102087.92
2019-03-25T23:35:59.416Z,102085.75
2019-03-25T23:38:25.216Z,102083.45
2019-03-25T23:40:51.006Z,102080.17
2019-03-25T23:43:16.809Z,102079.67
2019-03-25T23:45:42.637Z,102087.82
2019-03-25T23:48:08.541Z,102092.56
2019-03-25T23:50:34.328Z,102086.84
2019-03-25T23:53:00.124Z,102096.70
2019-03-25T23:55:25.914Z,102099.36
2019-03-25T23:57:51.711Z,102101.53
